createdAt,value
2023-01-17T00:02:11.054Z,97847.44
2023-01-17T00:04:56.842Z,97847.44
2023-01-17T00:07:44.125Z,97851.00
2023-01-17T00:10:15.249Z,97851.06
2023-01-17T00:12:49.376Z,97864.06
2023-01-17T00:15:19.980Z,97876.28
2023-01-17T00:17:51.031Z,97868.53
2023-01-17T00:20:39.802Z,97881.59
2023-01-17T00:23:26.774Z,97887.78
2023-01-17T00:26:05.182Z,97883.56
2023-01-17T00:28:35.421Z,97881.94
2023-01-17T00:31:04.390Z,97889.94
2023-01-17T00:33:33.494Z,97878.09
2023-01-17T00:36:02.375Z,97890.00
2023-01-17T00:38:32.527Z,97900.41
2023-01-17T00:41:03.698Z,97907.38
2023-01-17T00:43:50.685Z,97894.63
2023-01-17T00:46:37.588Z,97913.44
2023-01-17T00:49:26.050Z,97922.13
2023-01-17T00:52:12.093Z,97925.47
2023-01-17T00:54:58.190Z,97923.03
2023-01-17T00:57:43.726Z,97915.13
2023-01-17T01:00:31.628Z,97940.09
2023-01-17T01:03:17.564Z,97940.06
2023-01-17T01:06:05.027Z,97948.72
2023-01-17T01:08:50.857Z,97940.25
2023-01-17T01:11:39.660Z,97936.78
2023-01-17T01:14:28.569Z,97945.53
2023-01-17T01:17:14.691Z,97969.84
2023-01-17T01:20:00.729Z,97976.72
2023-01-17T01:22:47.820Z,97969.78
2023-01-17T01:25:33.981Z,97961.16
2023-01-17T01:28:24.380Z,97981.63
2023-01-17T01:31:10.254Z,97957.56
2023-01-17T01:33:38.873Z,97986.63
2023-01-17T01:36:10.289Z,97995.19
2023-01-17T01:38:40.856Z,98002.09
2023-01-17T01:41:09.561Z,97988.31
2023-01-17T01:43:46.155Z,98018.41
2023-01-17T01:46:18.376Z,98027.06
2023-01-17T01:48:51.772Z,98027.94
2023-01-17T01:51:26.260Z,98011.81
2023-01-17T01:54:00.930Z,98035.78
2023-01-17T01:56:30.960Z,98030.63
2023-01-17T01:59:02.453Z,98021.94
2023-01-17T02:01:32.009Z,98034.09
2023-01-17T02:04:00.850Z,98057.34
2023-01-17T02:06:35.152Z,98075.44
2023-01-17T02:09:08.691Z,98054.00
2023-01-17T02:11:39.575Z,98042.22
2023-01-17T02:14:08.126Z,98064.63
2023-01-17T02:16:54.860Z,98062.09
2023-01-17T02:20:05.713Z,98074.22
2023-01-17T02:23:14.731Z,98077.66
2023-01-17T02:26:34.611Z,98075.13
2023-01-17T02:30:00.877Z,98071.75
2023-01-17T02:32:54.704Z,98085.38
2023-01-17T02:35:33.924Z,98101.03
2023-01-17T02:38:15.834Z,98108.72
2023-01-17T02:40:49.805Z,98108.03
2023-01-17T02:43:21.218Z,98107.97
2023-01-17T02:45:49.905Z,98107.19
2023-01-17T02:48:24.308Z,98100.41
2023-01-17T02:51:22.951Z,98124.47
2023-01-17T02:54:22.328Z,98122.00
2023-01-17T02:57:01.543Z,98122.00
2023-01-17T02:59:39.258Z,98136.59
2023-01-17T03:02:18.558Z,98152.91
2023-01-17T03:04:55.160Z,98150.44
2023-01-17T03:07:27.710Z,98170.25
2023-01-17T03:10:00.646Z,98158.28
2023-01-17T03:12:30.796Z,98153.16
2023-01-17T03:14:59.490Z,98161.91
2023-01-17T03:17:33.353Z,98153.28
2023-01-17T03:20:03.452Z,98171.34
2023-01-17T03:22:32.067Z,98171.34
2023-01-17T03:25:00.442Z,98179.06
2023-01-17T03:27:29.043Z,98186.81
2023-01-17T03:29:57.379Z,98191.94
2023-01-17T03:32:25.891Z,98186.81
2023-01-17T03:34:54.405Z,98195.38
2023-01-17T03:37:24.297Z,98186.75
2023-01-17T03:39:53.339Z,98177.38
2023-01-17T03:42:21.827Z,98196.22
2023-01-17T03:44:50.423Z,98203.19
2023-01-17T03:47:19.031Z,98206.63
2023-01-17T03:49:47.557Z,98210.22
2023-01-17T03:52:16.297Z,98215.34
2023-01-17T03:54:46.304Z,98218.03
2023-01-17T03:57:15.785Z,98253.28
2023-01-17T03:59:45.033Z,98275.75
2023-01-17T04:02:13.598Z,98258.56
2023-01-17T04:04:42.150Z,98254.34
2023-01-17T04:07:10.767Z,98256.94
2023-01-17T04:09:39.222Z,98257.84
2023-01-17T04:12:09.763Z,98261.34
2023-01-17T04:14:38.280Z,98259.63
2023-01-17T04:17:07.042Z,98257.94
2023-01-17T04:19:38.524Z,98251.19
2023-01-17T04:22:07.277Z,98244.34
2023-01-17T04:24:36.105Z,98253.03
2023-01-17T04:27:07.064Z,98258.28
2023-01-17T04:29:39.258Z,98265.19
2023-01-17T04:32:08.112Z,98280.72
2023-01-17T04:34:36.724Z,98280.75
2023-01-17T04:37:05.374Z,98289.41
2023-01-17T04:39:35.235Z,98286.03
2023-01-17T04:42:04.497Z,98291.22
2023-01-17T04:44:35.257Z,98292.09
2023-01-17T04:47:05.711Z,98299.84
2023-01-17T04:49:36.598Z,98305.91
2023-01-17T04:52:05.528Z,98303.38
2023-01-17T04:54:34.394Z,98298.22
2023-01-17T04:57:03.058Z,98306.88
2023-01-17T04:59:31.848Z,98302.59
2023-01-17T05:02:00.382Z,98305.22
2023-01-17T05:04:30.631Z,98296.66
2023-01-17T05:06:59.280Z,98298.41
2023-01-17T05:09:27.962Z,98314.75
2023-01-17T05:11:57.057Z,98295.00
2023-01-17T05:14:26.669Z,98316.50
2023-01-17T05:16:55.632Z,98324.28
2023-01-17T05:19:24.543Z,98327.72
2023-01-17T05:21:55.243Z,98332.06
2023-01-17T05:24:23.827Z,98332.09
2023-01-17T05:26:54.925Z,98348.44
2023-01-17T05:29:23.624Z,98353.59
2023-01-17T05:31:52.849Z,98357.06
2023-01-17T05:34:21.679Z,98367.41
2023-01-17T05:36:50.263Z,98351.94
2023-01-17T05:39:20.426Z,98362.25
2023-01-17T05:41:49.506Z,98364.00
2023-01-17T05:44:18.113Z,98365.75
2023-01-17T05:46:47.430Z,98370.91
2023-01-17T05:49:16.463Z,98371.81
2023-01-17T05:51:45.188Z,98382.97
2023-01-17T05:54:13.951Z,98384.72
2023-01-17T05:56:45.107Z,98390.75
2023-01-17T05:59:14.351Z,98389.03
2023-01-17T06:01:43.167Z,98398.50
2023-01-17T06:04:12.063Z,98399.41
2023-01-17T06:06:40.778Z,98409.72
2023-01-17T06:09:10.654Z,98419.16
2023-01-17T06:11:39.267Z,98405.41
2023-01-17T06:14:10.466Z,98416.59
2023-01-17T06:16:39.189Z,98421.75
2023-01-17T06:19:09.605Z,98418.31
2023-01-17T06:21:38.347Z,98415.75
2023-01-17T06:24:08.163Z,98412.31
2023-01-17T06:26:36.719Z,98425.22
2023-01-17T06:29:05.395Z,98410.59
2023-01-17T06:31:35.342Z,98431.22
2023-01-17T06:34:04.843Z,98432.09
2023-01-17T06:36:35.114Z,98443.28
2023-01-17T06:39:03.718Z,98454.44
2023-01-17T06:41:33.295Z,98447.56
2023-01-17T06:44:01.971Z,98459.63
2023-01-17T06:46:30.958Z,98459.63
2023-01-17T06:49:01.773Z,98463.91
2023-01-17T06:51:30.798Z,98460.47
2023-01-17T06:54:01.411Z,98451.00
2023-01-17T06:56:33.572Z,98438.97
2023-01-17T06:59:04.551Z,98476.81
2023-01-17T07:01:34.159Z,98481.09
2023-01-17T07:04:06.188Z,98475.09
2023-01-17T07:06:37.231Z,98477.66
2023-01-17T07:09:06.267Z,98486.22
2023-01-17T07:11:35.329Z,98484.53
2023-01-17T07:14:05.371Z,98475.06
2023-01-17T07:16:35.685Z,98487.09
2023-01-17T07:19:06.125Z,98499.13
2023-01-17T07:21:40.289Z,98501.72
2023-01-17T07:24:09.694Z,98502.53
2023-01-17T07:26:40.609Z,98493.06
2023-01-17T07:29:09.611Z,98514.59
2023-01-17T07:31:44.387Z,98518.00
2023-01-17T07:34:14.558Z,98515.44
2023-01-17T07:36:44.361Z,98517.16
2023-01-17T07:39:13.243Z,98495.66
2023-01-17T07:41:43.382Z,98502.53
2023-01-17T07:44:13.267Z,98504.22
2023-01-17T07:46:44.441Z,98524.88
2023-01-17T07:49:16.187Z,98508.56
2023-01-17T07:51:50.957Z,98512.00
2023-01-17T07:54:19.620Z,98524.91
2023-01-17T07:56:49.194Z,98529.19
2023-01-17T07:59:18.215Z,98522.31
2023-01-17T08:01:47.415Z,98518.88
2023-01-17T08:04:17.533Z,98518.88
2023-01-17T08:06:51.758Z,98523.22
2023-01-17T08:09:20.802Z,98513.75
2023-01-17T08:11:49.952Z,98518.94
2023-01-17T08:14:21.423Z,98527.53
2023-01-17T08:16:50.153Z,98536.13
2023-01-17T08:19:21.043Z,98526.66
2023-01-17T08:21:49.844Z,98536.13
2023-01-17T08:24:18.904Z,98556.78
2023-01-17T08:26:47.816Z,98553.31
2023-01-17T08:29:16.552Z,98574.00
2023-01-17T08:31:45.262Z,98555.94
2023-01-17T08:34:14.372Z,98562.84
2023-01-17T08:36:45.550Z,98557.69
2023-01-17T08:39:14.293Z,98549.94
2023-01-17T08:41:43.087Z,98570.59
2023-01-17T08:44:11.743Z,98573.19
2023-01-17T08:46:41.090Z,98582.63
2023-01-17T08:49:12.907Z,98584.38
2023-01-17T08:51:44.205Z,98586.09
2023-01-17T08:54:15.318Z,98581.78
2023-01-17T08:56:44.105Z,98577.47
2023-01-17T08:59:14.158Z,98580.94
2023-01-17T09:01:46.614Z,98582.66
2023-01-17T09:04:16.592Z,98586.94
2023-01-17T09:06:48.611Z,98573.19
2023-01-17T09:09:19.180Z,98561.16
2023-01-17T09:11:48.782Z,98557.72
2023-01-17T09:14:17.831Z,98573.19
2023-01-17T09:16:48.833Z,98574.91
2023-01-17T09:19:19.319Z,98575.78
2023-01-17T09:21:50.387Z,98586.97
2023-01-17T09:24:19.463Z,98573.16
2023-01-17T09:26:48.394Z,98573.16
2023-01-17T09:29:19.365Z,98588.69
2023-01-17T09:31:50.463Z,98591.22
2023-01-17T09:34:20.130Z,98579.16
2023-01-17T09:36:52.561Z,98586.91
2023-01-17T09:39:21.502Z,98592.94
2023-01-17T09:41:56.900Z,98599.81
2023-01-17T09:44:29.777Z,98603.25
2023-01-17T09:47:14.039Z,98586.91
2023-01-17T09:49:46.486Z,98580.84
2023-01-17T09:52:21.268Z,98613.56
2023-01-17T09:54:51.457Z,98596.34
2023-01-17T09:57:47.256Z,98613.53
2023-01-17T10:00:37.827Z,98604.91
2023-01-17T10:03:33.860Z,98616.09
2023-01-17T10:06:20.922Z,98616.09
2023-01-17T10:09:25.355Z,98634.16
2023-01-17T10:12:26.037Z,98637.50
2023-01-17T10:16:11.779Z,98651.28
2023-01-17T10:18:43.085Z,98636.47
2023-01-17T10:21:19.988Z,98648.59
2023-01-17T10:24:18.469Z,98655.56
2023-01-17T10:26:53.095Z,98640.09
2023-01-17T10:29:22.817Z,98651.31
2023-01-17T10:31:55.987Z,98666.84
2023-01-17T10:34:33.547Z,98659.06
2023-01-17T10:37:13.367Z,98665.97
2023-01-17T10:39:47.523Z,98665.94
2023-01-17T10:42:25.534Z,98671.97
2023-01-17T10:45:01.691Z,98673.66
2023-01-17T10:47:34.497Z,98667.63
2023-01-17T10:50:05.736Z,98661.56
2023-01-17T10:52:45.529Z,98651.22
2023-01-17T10:55:34.604Z,98640.88
2023-01-17T10:58:04.767Z,98658.09
2023-01-17T11:00:44.232Z,98639.97
2023-01-17T11:03:14.976Z,98641.66
2023-01-17T11:05:44.670Z,98643.38
2023-01-17T11:08:15.758Z,98641.63
2023-01-17T11:10:48.881Z,98641.59
2023-01-17T11:13:30.842Z,98642.50
2023-01-17T11:16:03.133Z,98617.50
2023-01-17T11:18:36.242Z,98634.69
2023-01-17T11:21:13.502Z,98630.34
2023-01-17T11:23:44.368Z,98639.84
2023-01-17T11:26:26.807Z,98629.47
2023-01-17T11:29:15.976Z,98632.91
2023-01-17T11:31:44.536Z,98636.34
2023-01-17T11:34:19.220Z,98616.53
2023-01-17T11:36:49.608Z,98609.59
2023-01-17T11:39:31.292Z,98617.34
2023-01-17T11:42:07.256Z,98636.25
2023-01-17T11:44:37.729Z,98619.03
2023-01-17T11:47:17.125Z,98622.38
2023-01-17T11:50:38.482Z,98631.00
2023-01-17T11:53:19.869Z,98606.00
2023-01-17T11:56:29.425Z,98606.84
2023-01-17T12:00:05.524Z,98619.69
2023-01-17T12:03:09.022Z,98618.78
2023-01-17T12:06:01.753Z,98617.91
2023-01-17T12:08:51.944Z,98624.78
2023-01-17T12:11:30.109Z,98611.78
2023-01-17T12:14:15.193Z,98597.13
2023-01-17T12:17:09.772Z,98613.41
2023-01-17T12:20:01.633Z,98587.56
2023-01-17T12:22:58.462Z,98608.13
2023-01-17T12:25:47.460Z,98584.81
2023-01-17T12:28:40.561Z,98608.88
2023-01-17T12:31:21.726Z,98608.81
2023-01-17T12:33:57.366Z,98604.41
2023-01-17T12:36:41.953Z,98625.13
2023-01-17T12:39:14.583Z,98599.19
2023-01-17T12:42:04.912Z,98612.91
2023-01-17T12:44:53.190Z,98623.16
2023-01-17T12:47:28.718Z,98623.94
2023-01-17T12:50:10.155Z,98613.44
2023-01-17T12:52:51.469Z,98611.59
2023-01-17T12:55:38.458Z,98610.69
2023-01-17T12:58:18.517Z,98605.50
2023-01-17T13:00:54.472Z,98605.38
2023-01-17T13:03:35.137Z,98617.38
2023-01-17T13:06:11.079Z,98588.13
2023-01-17T13:08:46.612Z,98617.16
2023-01-17T13:11:33.954Z,98612.75
2023-01-17T13:14:05.701Z,98587.63
2023-01-17T13:16:42.286Z,98595.53
2023-01-17T13:19:21.079Z,98575.63
2023-01-17T13:21:53.219Z,98595.47
2023-01-17T13:24:42.127Z,98580.56
2023-01-17T13:27:35.920Z,98588.91
2023-01-17T13:30:34.899Z,98617.44
2023-01-17T13:33:29.898Z,98592.28
2023-01-17T13:36:19.687Z,98613.66
2023-01-17T13:39:15.700Z,98610.63
2023-01-17T13:41:53.035Z,98625.03
2023-01-17T13:44:32.380Z,98609.75
2023-01-17T13:47:04.639Z,98620.84
2023-01-17T13:49:48.958Z,98624.88
2023-01-17T13:52:35.906Z,98648.69
2023-01-17T13:55:08.123Z,98639.50
2023-01-17T13:57:46.843Z,98632.69
2023-01-17T14:00:59.321Z,98611.13
2023-01-17T14:04:07.827Z,98634.00
2023-01-17T14:06:40.730Z,98646.47
2023-01-17T14:09:22.402Z,98638.19
2023-01-17T14:12:05.776Z,98653.16
2023-01-17T14:14:49.108Z,98649.13
2023-01-17T14:18:03.442Z,98672.69
2023-01-17T14:20:48.737Z,98663.34
2023-01-17T14:23:50.349Z,98664.47
2023-01-17T14:26:42.581Z,98674.03
2023-01-17T14:29:52.358Z,98669.88
2023-01-17T14:32:25.045Z,98672.53
2023-01-17T14:34:54.823Z,98669.16
2023-01-17T14:37:38.415Z,98673.50
2023-01-17T14:40:20.424Z,98670.94
2023-01-17T14:42:58.560Z,98688.84
2023-01-17T14:45:32.173Z,98693.84
2023-01-17T14:48:03.956Z,98694.53
2023-01-17T14:50:38.341Z,98693.72
2023-01-17T14:53:21.329Z,98693.94
2023-01-17T14:55:56.835Z,98685.59
2023-01-17T14:58:28.434Z,98699.53
2023-01-17T15:01:02.133Z,98692.75
2023-01-17T15:03:33.785Z,98698.03
2023-01-17T15:06:13.522Z,98703.31
2023-01-17T15:08:42.447Z,98701.59
2023-01-17T15:11:19.004Z,98702.53
2023-01-17T15:13:51.406Z,98700.84
2023-01-17T15:16:25.321Z,98698.38
2023-01-17T15:18:55.888Z,98707.03
2023-01-17T15:21:27.871Z,98704.50
2023-01-17T15:23:59.334Z,98695.91
2023-01-17T15:26:32.999Z,98708.88
2023-01-17T15:29:06.356Z,98715.81
2023-01-17T15:31:45.145Z,98719.25
2023-01-17T15:34:25.979Z,98714.97
2023-01-17T15:36:58.339Z,98710.69
2023-01-17T15:39:34.081Z,98719.31
2023-01-17T15:42:05.388Z,98724.50
2023-01-17T15:44:53.289Z,98725.41
2023-01-17T15:47:35.646Z,98722.88
2023-01-17T15:50:32.172Z,98726.34
2023-01-17T15:53:03.693Z,98732.41
2023-01-17T15:55:35.203Z,98724.66
2023-01-17T15:58:04.879Z,98724.72
2023-01-17T16:00:42.069Z,98716.97
2023-01-17T16:03:25.477Z,98735.94
2023-01-17T16:05:57.906Z,98728.16
2023-01-17T16:08:31.264Z,98716.97
2023-01-17T16:11:03.388Z,98733.38
2023-01-17T16:13:34.421Z,98736.81
2023-01-17T16:16:24.030Z,98723.03
2023-01-17T16:19:01.416Z,98718.75
2023-01-17T16:21:32.785Z,98723.03
2023-01-17T16:24:02.990Z,98731.66
2023-01-17T16:26:33.806Z,98741.13
2023-01-17T16:29:02.436Z,98735.97
2023-01-17T16:31:31.344Z,98745.44
2023-01-17T16:34:01.810Z,98744.56
2023-01-17T16:36:30.482Z,98749.75
2023-01-17T16:38:59.283Z,98730.75
2023-01-17T16:41:27.933Z,98754.03
2023-01-17T16:44:02.504Z,98744.53
2023-01-17T16:46:31.698Z,98754.00
2023-01-17T16:49:03.125Z,98727.28
2023-01-17T16:51:32.163Z,98763.44
2023-01-17T16:54:02.430Z,98740.19
2023-01-17T16:56:31.190Z,98760.88
2023-01-17T16:58:59.849Z,98747.06
2023-01-17T17:01:30.116Z,98760.84
2023-01-17T17:03:58.734Z,98756.53
2023-01-17T17:06:29.085Z,98762.53
2023-01-17T17:08:57.972Z,98764.25
2023-01-17T17:11:26.962Z,98766.84
2023-01-17T17:13:56.637Z,98762.50
2023-01-17T17:16:29.994Z,98769.41
2023-01-17T17:19:01.233Z,98771.97
2023-01-17T17:21:34.998Z,98774.56
2023-01-17T17:24:03.999Z,98783.19
2023-01-17T17:26:35.512Z,98784.03
2023-01-17T17:29:04.903Z,98783.19
2023-01-17T17:31:33.952Z,98785.78
2023-01-17T17:34:05.049Z,98784.03
2023-01-17T17:36:36.861Z,98771.06
2023-01-17T17:39:09.332Z,98793.50
2023-01-17T17:41:41.311Z,98784.84
2023-01-17T17:44:10.201Z,98779.66
2023-01-17T17:46:39.881Z,98787.44
2023-01-17T17:49:08.733Z,98793.44
2023-01-17T17:51:42.477Z,98807.19
2023-01-17T17:54:13.440Z,98793.41
2023-01-17T17:56:49.408Z,98797.69
2023-01-17T17:59:19.661Z,98788.19
2023-01-17T18:01:50.579Z,98798.50
2023-01-17T18:04:20.037Z,98785.56
2023-01-17T18:06:50.389Z,98815.69
2023-01-17T18:09:20.612Z,98807.03
2023-01-17T18:12:00.132Z,98803.56
2023-01-17T18:14:28.822Z,98807.00
2023-01-17T18:17:00.502Z,98812.19
2023-01-17T18:19:30.004Z,98809.56
2023-01-17T18:22:00.555Z,98826.78
2023-01-17T18:24:29.392Z,98836.25
2023-01-17T18:27:07.489Z,98806.06
2023-01-17T18:29:36.546Z,98825.06
2023-01-17T18:32:07.001Z,98806.03
2023-01-17T18:34:41.657Z,98824.16
2023-01-17T18:37:18.546Z,98824.16
2023-01-17T18:39:49.818Z,98818.94
2023-01-17T18:42:18.939Z,98837.88
2023-01-17T18:44:48.193Z,98824.94
2023-01-17T18:47:17.881Z,98839.59
2023-01-17T18:49:57.753Z,98845.63
2023-01-17T18:52:30.562Z,98831.84
2023-01-17T18:54:59.166Z,98833.56
2023-01-17T18:57:30.070Z,98847.28
2023-01-17T18:59:58.565Z,98825.72
2023-01-17T19:02:27.672Z,98837.78
2023-01-17T19:04:56.252Z,98837.72
2023-01-17T19:07:29.327Z,98858.44
2023-01-17T19:10:04.406Z,98865.28
2023-01-17T19:12:33.115Z,98869.63
2023-01-17T19:15:05.673Z,98863.56
2023-01-17T19:17:34.394Z,98862.66
2023-01-17T19:20:03.826Z,98865.22
2023-01-17T19:22:34.523Z,98874.72
2023-01-17T19:25:03.246Z,98884.22
2023-01-17T19:27:32.390Z,98876.41
2023-01-17T19:30:01.250Z,98874.69
2023-01-17T19:32:29.902Z,98885.88
2023-01-17T19:34:58.518Z,98894.47
2023-01-17T19:37:28.355Z,98898.81
2023-01-17T19:39:58.599Z,98903.06
2023-01-17T19:42:28.826Z,98906.44
2023-01-17T19:45:03.827Z,98903.03
2023-01-17T19:47:35.471Z,98913.34
2023-01-17T19:50:04.653Z,98882.28
2023-01-17T19:52:34.247Z,98902.13
2023-01-17T19:55:07.221Z,98910.72
2023-01-17T19:57:37.135Z,98908.09
2023-01-17T20:00:15.619Z,98915.00
2023-01-17T20:02:47.511Z,98916.66
2023-01-17T20:05:21.390Z,98911.41
2023-01-17T20:07:59.241Z,98926.91
2023-01-17T20:10:30.698Z,98923.47
2023-01-17T20:13:04.206Z,98923.44
2023-01-17T20:15:35.870Z,98913.94
2023-01-17T20:18:11.924Z,98907.81
2023-01-17T20:20:56.620Z,98924.28
2023-01-17T20:23:39.251Z,98911.31
2023-01-17T20:26:23.280Z,98916.50
2023-01-17T20:28:54.061Z,98925.13
2023-01-17T20:31:26.321Z,98919.13
2023-01-17T20:34:00.705Z,98908.75
2023-01-17T20:36:38.421Z,98920.81
2023-01-17T20:39:11.207Z,98921.72
2023-01-17T20:41:49.612Z,98924.31
2023-01-17T20:44:19.861Z,98942.44
2023-01-17T20:46:49.748Z,98922.59
2023-01-17T20:49:29.488Z,98924.31
2023-01-17T20:52:00.849Z,98932.97
2023-01-17T20:54:41.184Z,98921.72
2023-01-17T20:57:15.524Z,98919.97
2023-01-17T20:59:45.922Z,98926.97
2023-01-17T21:02:14.865Z,98926.91
2023-01-17T21:04:50.477Z,98938.13
2023-01-17T21:07:37.623Z,98937.22
2023-01-17T21:10:10.931Z,98948.44
2023-01-17T21:12:44.859Z,98945.78
2023-01-17T21:21:31.463Z,98963.00
2023-01-17T21:24:04.747Z,98954.41
2023-01-17T21:26:39.121Z,98944.91
2023-01-17T21:29:29.064Z,98955.31
2023-01-17T21:32:01.930Z,98945.78
2023-01-17T21:34:32.416Z,98944.94
2023-01-17T21:37:01.966Z,98950.94
2023-01-17T21:39:31.283Z,98963.06
2023-01-17T21:44:46.166Z,98959.63
2023-01-17T21:47:17.278Z,98950.13
2023-01-17T21:49:52.463Z,98957.91
2023-01-17T21:52:27.665Z,98949.31
2023-01-17T21:55:15.680Z,98941.44
2023-01-17T21:58:03.243Z,98957.91
2023-01-17T22:00:51.838Z,98949.44
2023-01-17T22:03:22.308Z,98966.81
2023-01-17T22:05:51.494Z,98964.28
2023-01-17T22:08:23.863Z,98969.44
2023-01-17T22:10:53.277Z,98965.06
2023-01-17T22:13:37.837Z,98957.22
2023-01-17T22:16:22.208Z,98954.56
2023-01-17T22:18:56.606Z,98969.16
2023-01-17T22:21:46.345Z,98944.06
2023-01-17T22:24:36.207Z,98945.78
2023-01-17T22:27:10.273Z,98950.91
2023-01-17T22:29:54.193Z,98966.41
2023-01-17T22:32:33.869Z,98952.53
2023-01-17T22:35:10.199Z,98976.69
2023-01-17T22:37:56.824Z,98985.25
2023-01-17T22:40:45.078Z,98962.75
2023-01-17T22:43:35.045Z,98966.22
2023-01-17T22:46:09.006Z,98982.63
2023-01-17T22:48:43.544Z,98972.22
2023-01-17T22:51:23.467Z,98972.22
2023-01-17T22:54:15.979Z,98957.50
2023-01-17T22:56:50.201Z,98966.13
2023-01-17T22:59:25.939Z,98975.59
2023-01-17T23:02:01.394Z,98964.38
2023-01-17T23:04:43.876Z,98984.22
2023-01-17T23:10:42.898Z,98983.34
2023-01-17T23:13:16.336Z,98987.56
2023-01-17T23:16:03.277Z,98970.22
2023-01-17T23:18:51.302Z,98996.09
2023-01-17T23:21:50.333Z,98993.41
2023-01-17T23:24:31.037Z,99002.09
2023-01-17T23:27:17.820Z,99003.84
2023-01-17T23:29:47.740Z,99001.13
2023-01-17T23:32:20.061Z,99007.13
2023-01-17T23:35:09.074Z,99022.66
2023-01-17T23:38:02.725Z,99028.69
2023-01-17T23:40:45.064Z,98999.25
2023-01-17T23:49:16.040Z,99003.31
2023-01-17T23:51:47.947Z,99001.53
2023-01-17T23:54:21.534Z,99026.56
2023-01-17T23:56:51.671Z,99010.97
2023-01-17T23:59:21.549Z,99032.59
